Time;durP1;ratioP1;P1;durP2;ratioP2;P2;SDS_P1;SDS_P2;PMS_P1;PMS_P2;Temp;Humidity;BMP_temperature;BMP_pressure;BME280_temperature;BME280_humidity;BME280_pressure;Samples;Min_cycle;Max_cycle;Signal;HPM_P1;HPM_P2
2023/11/07 00:00:49;;;;;;;2.25;0.80;;;10.40;99.90;;;;;;2053453;28;20019;-74
2023/11/07 00:01:50;;;;;;;1.73;1.00;;;10.40;99.90;;;;;;2056661;28;20018;-73
2023/11/07 00:02:53;;;;;;;1.25;0.80;;;10.40;99.90;;;;;;2055509;28;20256;-75
2023/11/07 00:03:53;;;;;;;1.55;1.00;;;10.50;99.90;;;;;;2061875;28;20110;-74
2023/11/07 00:04:55;;;;;;;1.65;0.90;;;10.40;99.90;;;;;;2055535;28;20050;-74
2023/11/07 00:05:55;;;;;;;2.92;0.90;;;10.40;99.90;;;;;;2059972;28;20021;-74
2023/11/07 00:06:58;;;;;;;1.08;0.80;;;10.50;99.90;;;;;;2057195;28;20030;-74
2023/11/07 00:07:59;;;;;;;1.35;0.90;;;10.40;99.90;;;;;;2047223;28;20133;-74
2023/11/07 00:09:00;;;;;;;2.47;0.95;;;10.40;99.90;;;;;;2046969;28;20035;-75
2023/11/07 00:10:00;;;;;;;1.75;0.98;;;10.30;99.90;;;;;;2056860;28;20061;-74
2023/11/07 00:11:01;;;;;;;3.90;0.95;;;10.30;99.90;;;;;;2062757;28;20197;-75
2023/11/07 00:12:02;;;;;;;2.17;1.10;;;10.30;99.90;;;;;;2065431;28;20369;-76
2023/11/07 00:13:03;;;;;;;1.40;0.88;;;10.30;99.90;;;;;;2062946;28;20071;-77
2023/11/07 00:14:05;;;;;;;2.08;0.90;;;10.30;99.90;;;;;;2066214;28;20518;-74
2023/11/07 00:15:06;;;;;;;1.55;1.10;;;10.30;99.90;;;;;;2065985;28;20041;-74
2023/11/07 00:16:07;;;;;;;3.15;0.90;;;10.30;99.90;;;;;;2054524;28;20121;-74
2023/11/07 00:17:09;;;;;;;1.63;0.90;;;10.20;99.90;;;;;;2054157;28;20306;-75
2023/11/07 00:18:10;;;;;;;1.00;0.95;;;10.20;99.90;;;;;;2065511;28;20026;-75
2023/11/07 00:19:11;;;;;;;1.48;0.95;;;10.20;99.90;;;;;;2065151;28;20034;-75
2023/11/07 00:20:12;;;;;;;2.35;1.00;;;10.20;99.90;;;;;;2062499;28;20026;-74
2023/11/07 00:21:13;;;;;;;2.50;1.10;;;10.20;99.90;;;;;;2060360;28;20050;-74
2023/11/07 00:22:14;;;;;;;1.60;0.90;;;10.20;99.90;;;;;;2064263;28;20030;-75
2023/11/07 00:23:15;;;;;;;3.17;1.00;;;10.20;99.90;;;;;;2054672;28;20077;-74
2023/11/07 00:24:15;;;;;;;1.42;1.00;;;10.30;99.90;;;;;;2056059;28;20235;-75
2023/11/07 00:25:16;;;;;;;1.25;1.05;;;10.30;99.90;;;;;;2065434;28;20117;-74
2023/11/07 00:26:18;;;;;;;2.20;1.00;;;10.30;99.90;;;;;;2062110;28;20022;-74
2023/11/07 00:27:24;;;;;;;2.33;1.00;;;10.30;99.90;;;;;;2062475;28;20041;-74
2023/11/07 00:28:27;;;;;;;1.77;0.90;;;10.30;99.90;;;;;;2054798;28;20064;-74
2023/11/07 00:29:28;;;;;;;1.17;0.90;;;10.20;99.90;;;;;;2053780;28;20657;-74
2023/11/07 00:30:28;;;;;;;1.08;0.90;;;10.20;99.90;;;;;;2061638;28;20176;-75
2023/11/07 00:31:29;;;;;;;2.17;0.90;;;10.20;99.90;;;;;;2064151;28;20097;-75
2023/11/07 00:32:29;;;;;;;1.75;0.90;;;10.20;99.90;;;;;;2055051;28;20523;-74
2023/11/07 00:33:30;;;;;;;3.63;1.05;;;10.10;99.90;;;;;;2049352;28;20512;-73
2023/11/07 00:34:31;;;;;;;2.20;1.13;;;10.00;99.90;;;;;;2049387;28;20054;-75
2023/11/07 00:35:31;;;;;;;5.75;2.47;;;10.00;99.90;;;;;;2052618;28;20030;-75
2023/11/07 00:36:34;;;;;;;9.35;4.18;;;10.00;99.90;;;;;;2056005;28;20030;-75
2023/11/07 00:37:35;;;;;;;5.63;2.45;;;9.90;99.90;;;;;;2057788;28;20173;-75
2023/11/07 00:38:36;;;;;;;10.18;3.40;;;9.90;99.90;;;;;;2060846;28;20285;-74
2023/11/07 00:39:36;;;;;;;2.85;1.10;;;9.80;99.90;;;;;;2063901;28;20441;-75
2023/11/07 00:40:37;;;;;;;1.52;1.00;;;9.80;99.90;;;;;;2065613;28;20135;-75
2023/11/07 00:41:38;;;;;;;2.63;1.45;;;9.90;99.90;;;;;;2048887;28;20033;-75
2023/11/07 00:42:39;;;;;;;9.65;3.92;;;10.00;99.90;;;;;;2053721;28;20493;-76
2023/11/07 00:43:39;;;;;;;5.82;2.78;;;9.90;99.90;;;;;;2066889;28;20105;-75
2023/11/07 00:44:40;;;;;;;2.40;1.10;;;9.90;99.90;;;;;;2064078;28;20614;-76
2023/11/07 00:45:41;;;;;;;2.58;1.10;;;9.90;99.90;;;;;;2057765;28;20027;-76
2023/11/07 00:46:42;;;;;;;1.50;1.00;;;9.90;99.90;;;;;;2059175;28;20097;-76
2023/11/07 00:47:43;;;;;;;1.45;0.90;;;9.90;99.90;;;;;;2051289;28;20069;-74
2023/11/07 00:48:43;;;;;;;1.58;1.00;;;9.90;99.90;;;;;;2048360;28;20031;-74
2023/11/07 00:49:45;;;;;;;1.42;0.98;;;9.80;99.90;;;;;;2063423;28;20201;-75
2023/11/07 00:50:45;;;;;;;2.65;1.10;;;9.90;99.90;;;;;;2057410;28;20418;-75
2023/11/07 00:51:48;;;;;;;3.33;1.00;;;9.90;99.90;;;;;;2061975;28;20480;-75
2023/11/07 00:52:50;;;;;;;1.45;1.00;;;9.80;99.90;;;;;;2070166;28;20400;-76
2023/11/07 00:53:50;;;;;;;1.33;0.95;;;9.80;99.90;;;;;;2063754;28;20121;-75
2023/11/07 00:54:51;;;;;;;2.17;1.00;;;9.80;99.90;;;;;;2062053;28;20484;-75
2023/11/07 00:55:52;;;;;;;3.28;1.10;;;9.80;99.90;;;;;;2063449;28;20037;-75
2023/11/07 00:56:53;;;;;;;1.90;1.20;;;9.80;99.90;;;;;;2064490;28;20527;-75
2023/11/07 00:57:53;;;;;;;1.90;1.08;;;9.80;99.90;;;;;;2065043;28;20469;-75
2023/11/07 00:58:54;;;;;;;1.40;1.00;;;9.70;99.90;;;;;;2063524;28;20415;-76
2023/11/07 00:59:54;;;;;;;2.33;1.00;;;9.70;99.90;;;;;;2061530;28;20028;-75
2023/11/07 01:00:55;;;;;;;2.88;1.20;;;9.70;99.90;;;;;;2065859;28;20029;-74
2023/11/07 01:01:56;;;;;;;2.25;1.00;;;9.80;99.90;;;;;;2061190;28;20448;-75
2023/11/07 01:02:57;;;;;;;3.38;1.00;;;9.80;99.90;;;;;;2057459;28;20026;-74
2023/11/07 01:03:58;;;;;;;2.58;0.93;;;9.70;99.90;;;;;;2057677;28;20030;-74
2023/11/07 01:04:59;;;;;;;3.83;1.17;;;9.80;99.90;;;;;;2063295;28;20099;-75
2023/11/07 01:05:59;;;;;;;2.47;1.17;;;9.80;99.90;;;;;;2059099;28;20125;-75
2023/11/07 01:07:00;;;;;;;2.03;1.00;;;9.80;99.90;;;;;;2061208;28;20033;-74
2023/11/07 01:08:01;;;;;;;4.72;1.30;;;9.90;99.90;;;;;;2063276;28;20026;-74
2023/11/07 01:09:03;;;;;;;1.15;1.00;;;9.90;99.90;;;;;;2058529;28;20476;-74
2023/11/07 01:10:06;;;;;;;1.95;1.10;;;9.90;99.90;;;;;;2060245;28;20081;-74
2023/11/07 01:11:07;;;;;;;1.95;1.20;;;9.90;99.90;;;;;;2056348;28;20023;-75
2023/11/07 01:12:08;;;;;;;2.80;1.50;;;9.90;99.90;;;;;;2057185;28;20038;-73
2023/11/07 01:13:09;;;;;;;2.85;1.33;;;9.90;99.90;;;;;;2061294;28;20054;-74
2023/11/07 01:14:09;;;;;;;2.50;1.30;;;9.90;99.90;;;;;;2052257;28;20241;-74
2023/11/07 01:15:10;;;;;;;2.55;1.20;;;9.90;99.90;;;;;;2050782;28;20027;-75
2023/11/07 01:16:11;;;;;;;7.28;3.95;;;9.90;99.90;;;;;;2055961;28;20046;-74
2023/11/07 01:17:12;;;;;;;5.53;3.92;;;9.90;99.90;;;;;;2061239;28;20662;-75
2023/11/07 01:18:12;;;;;;;7.22;4.90;;;9.90;99.90;;;;;;2054890;28;20322;-75
2023/11/07 01:19:14;;;;;;;7.57;4.35;;;9.90;99.90;;;;;;2051962;28;20030;-74
2023/11/07 01:20:15;;;;;;;6.07;3.72;;;9.90;99.90;;;;;;2051088;28;20053;-74
2023/11/07 01:21:16;;;;;;;5.35;3.55;;;9.90;99.90;;;;;;2047728;28;20038;-74
2023/11/07 01:22:16;;;;;;;5.63;3.80;;;9.90;99.90;;;;;;2051188;28;20619;-74
2023/11/07 01:23:17;;;;;;;6.40;3.40;;;9.90;99.90;;;;;;2047800;28;20038;-74
2023/11/07 01:24:18;;;;;;;4.88;3.20;;;9.90;99.90;;;;;;2047549;28;20277;-74
2023/11/07 01:25:19;;;;;;;3.60;2.53;;;9.90;99.90;;;;;;2055330;28;20389;-74
2023/11/07 01:26:19;;;;;;;2.15;1.58;;;9.90;99.90;;;;;;2059189;28;20031;-74
2023/11/07 01:27:20;;;;;;;2.05;1.10;;;9.90;99.90;;;;;;2063969;28;20629;-74
2023/11/07 01:28:21;;;;;;;2.00;1.15;;;9.90;99.90;;;;;;2065016;28;20052;-75
2023/11/07 01:29:21;;;;;;;3.13;1.50;;;9.90;99.90;;;;;;2064082;28;20088;-73
2023/11/07 01:30:23;;;;;;;3.75;1.40;;;9.90;99.90;;;;;;2056162;28;20035;-75
2023/11/07 01:31:23;;;;;;;1.52;1.20;;;9.90;99.90;;;;;;2049238;28;20031;-74
2023/11/07 01:32:24;;;;;;;2.03;1.50;;;10.00;99.90;;;;;;2056301;28;20121;-75
2023/11/07 01:33:24;;;;;;;2.33;1.33;;;9.90;99.90;;;;;;2064882;28;20117;-74
2023/11/07 01:34:25;;;;;;;2.45;1.33;;;9.90;99.90;;;;;;2054841;28;20033;-75
2023/11/07 01:35:25;;;;;;;3.92;1.20;;;10.00;99.90;;;;;;2056688;28;20480;-74
2023/11/07 01:36:26;;;;;;;3.03;1.63;;;10.00;99.90;;;;;;2065558;28;20048;-76
2023/11/07 01:37:27;;;;;;;3.67;1.20;;;10.00;99.90;;;;;;2066991;28;20026;-75
2023/11/07 01:38:28;;;;;;;2.53;1.58;;;10.00;99.90;;;;;;2059504;28;20035;-75
2023/11/07 01:39:28;;;;;;;3.15;1.40;;;10.00;99.90;;;;;;2062874;28;20066;-74
2023/11/07 01:40:29;;;;;;;2.45;1.20;;;10.00;99.90;;;;;;2065903;28;20040;-74
2023/11/07 01:41:30;;;;;;;1.85;1.20;;;10.00;99.90;;;;;;2066757;28;20065;-74
2023/11/07 01:42:30;;;;;;;1.27;1.10;;;10.00;99.90;;;;;;2063658;28;20057;-74
2023/11/07 01:43:31;;;;;;;2.47;1.20;;;10.00;99.90;;;;;;2058302;28;20026;-75
2023/11/07 01:44:32;;;;;;;1.92;1.30;;;10.00;99.90;;;;;;2055188;28;20038;-74
2023/11/07 01:45:32;;;;;;;2.80;1.20;;;10.00;99.90;;;;;;2054104;28;20037;-76
2023/11/07 01:46:33;;;;;;;4.15;1.20;;;10.00;99.90;;;;;;2054791;28;20940;-74
2023/11/07 01:47:34;;;;;;;1.70;1.30;;;10.00;99.90;;;;;;2064486;28;20026;-74
2023/11/07 01:48:36;;;;;;;2.70;1.13;;;10.10;99.90;;;;;;2062268;28;20050;-73
2023/11/07 01:49:36;;;;;;;2.45;1.10;;;10.10;99.90;;;;;;2062960;28;20031;-75
2023/11/07 01:50:37;;;;;;;1.33;1.20;;;10.10;99.90;;;;;;2055880;28;20330;-74
2023/11/07 01:51:38;;;;;;;2.25;1.20;;;10.20;99.90;;;;;;2058523;28;20060;-73
2023/11/07 01:52:40;;;;;;;1.20;1.10;;;10.20;99.90;;;;;;2063205;28;20038;-75
2023/11/07 01:53:41;;;;;;;2.92;1.30;;;10.20;99.90;;;;;;2069930;28;20404;-74
2023/11/07 01:54:44;;;;;;;2.05;1.20;;;10.30;99.90;;;;;;2064337;28;20523;-74
2023/11/07 01:55:45;;;;;;;2.33;1.10;;;10.30;99.90;;;;;;2060668;28;20048;-74
2023/11/07 01:56:45;;;;;;;2.67;1.23;;;10.30;99.90;;;;;;2054577;28;20451;-75
2023/11/07 01:57:47;;;;;;;1.20;1.10;;;10.40;99.90;;;;;;2057698;28;20031;-74
2023/11/07 01:58:48;;;;;;;2.25;1.13;;;10.30;99.90;;;;;;2062439;28;20038;-72
2023/11/07 01:59:49;;;;;;;2.72;1.27;;;10.30;99.90;;;;;;2052502;28;20545;-74
2023/11/07 02:00:51;;;;;;;2.10;1.20;;;10.40;99.90;;;;;;2058008;28;20033;-74
2023/11/07 02:01:54;;;;;;;3.47;1.30;;;10.40;99.90;;;;;;2046162;28;20524;-74
2023/11/07 02:02:57;;;;;;;1.30;1.20;;;10.40;99.90;;;;;;2055881;28;20030;-74
2023/11/07 02:03:58;;;;;;;1.90;1.13;;;10.40;99.90;;;;;;2065692;28;20029;-75
2023/11/07 02:05:00;;;;;;;2.22;1.02;;;10.50;99.90;;;;;;2065067;28;20232;-74
2023/11/07 02:06:01;;;;;;;2.08;1.15;;;10.40;99.90;;;;;;2063353;28;20057;-74
2023/11/07 02:07:02;;;;;;;1.52;1.10;;;10.50;99.90;;;;;;2055392;28;20129;-74
2023/11/07 02:08:05;;;;;;;1.92;1.30;;;10.40;99.90;;;;;;2058369;28;20034;-75
2023/11/07 02:09:08;;;;;;;2.15;1.08;;;10.40;99.90;;;;;;2066161;28;20566;-75
2023/11/07 02:10:11;;;;;;;2.40;1.10;;;10.50;99.90;;;;;;2063887;28;20520;-75
2023/11/07 02:11:12;;;;;;;1.77;1.10;;;10.50;99.90;;;;;;2061208;28;20064;-74
2023/11/07 02:12:13;;;;;;;2.65;1.20;;;10.50;99.90;;;;;;2065424;28;20464;-76
2023/11/07 02:13:13;;;;;;;1.52;1.08;;;10.50;99.90;;;;;;2065571;28;20026;-75
2023/11/07 02:14:35;;;;;;;2.80;1.30;;;10.50;99.90;;;;;;2064907;28;20049;-76
2023/11/07 02:15:38;;;;;;;2.30;1.30;;;10.50;99.90;;;;;;2070284;28;20040;-76
2023/11/07 02:16:38;;;;;;;2.28;1.20;;;10.60;99.90;;;;;;2065473;28;20132;-76
2023/11/07 02:17:39;;;;;;;1.45;1.00;;;10.50;99.90;;;;;;2038653;28;20035;-75
2023/11/07 02:18:39;;;;;;;1.95;1.20;;;10.60;99.90;;;;;;2057922;28;20515;-75
2023/11/07 02:19:40;;;;;;;2.35;1.20;;;10.60;99.90;;;;;;2063974;28;20256;-75
2023/11/07 02:20:41;;;;;;;3.28;1.25;;;10.60;99.90;;;;;;2063440;28;20081;-73
2023/11/07 02:21:45;;;;;;;2.75;1.25;;;10.60;99.90;;;;;;2051184;28;20031;-76
2023/11/07 02:23:09;;;;;;;1.98;1.10;;;10.60;99.90;;;;;;2050237;28;20428;-74
2023/11/07 02:24:10;;;;;;;3.10;1.27;;;10.60;99.90;;;;;;2048732;28;20053;-75
2023/11/07 02:25:15;;;;;;;2.90;1.20;;;10.60;99.90;;;;;;2062861;28;20030;-76
2023/11/07 02:26:17;;;;;;;2.63;1.10;;;10.50;99.90;;;;;;2062732;28;20053;-73
2023/11/07 02:27:18;;;;;;;1.52;1.10;;;10.50;99.90;;;;;;2056962;28;20122;-75
2023/11/07 02:28:19;;;;;;;3.63;1.30;;;10.50;99.90;;;;;;2048881;28;20030;-75
2023/11/07 02:29:21;;;;;;;2.78;1.33;;;10.50;99.90;;;;;;2047711;28;20023;-74
2023/11/07 02:30:22;;;;;;;3.58;1.00;;;10.50;99.90;;;;;;2055156;28;20031;-73
2023/11/07 02:31:22;;;;;;;3.83;1.20;;;10.50;99.90;;;;;;2048520;28;20057;-74
2023/11/07 02:32:23;;;;;;;3.42;1.33;;;10.50;99.90;;;;;;2056630;28;20029;-74
2023/11/07 02:33:23;;;;;;;4.68;1.27;;;10.50;99.90;;;;;;2064624;28;20106;-74
2023/11/07 02:34:24;;;;;;;2.92;1.17;;;10.50;99.90;;;;;;2056890;28;20033;-75
2023/11/07 02:35:26;;;;;;;4.70;1.00;;;10.50;99.90;;;;;;2049286;28;20153;-76
2023/11/07 02:36:27;;;;;;;1.70;1.10;;;10.40;99.90;;;;;;2050497;28;20027;-74
2023/11/07 02:37:28;;;;;;;1.92;1.20;;;10.40;99.90;;;;;;2056938;28;20045;-75
2023/11/07 02:38:28;;;;;;;2.85;1.10;;;10.50;99.90;;;;;;2064550;28;20472;-76
2023/11/07 02:39:30;;;;;;;1.55;1.10;;;10.50;99.90;;;;;;2055592;28;20505;-75
2023/11/07 02:40:30;;;;;;;2.75;1.27;;;10.50;99.90;;;;;;2055522;28;20099;-76
2023/11/07 02:41:31;;;;;;;1.63;1.10;;;10.50;99.90;;;;;;2056906;28;20571;-74
2023/11/07 02:42:31;;;;;;;2.78;1.13;;;10.50;99.90;;;;;;2056579;28;20033;-75
2023/11/07 02:43:32;;;;;;;2.80;1.10;;;10.50;99.90;;;;;;2046465;28;20379;-75
2023/11/07 02:44:33;;;;;;;3.05;1.20;;;10.50;99.90;;;;;;2056946;28;20091;-75
2023/11/07 02:45:36;;;;;;;1.92;1.08;;;10.50;99.90;;;;;;2063588;28;20116;-75
2023/11/07 02:46:40;;;;;;;3.60;1.30;;;10.50;99.90;;;;;;2054459;28;20045;-75
2023/11/07 02:47:40;;;;;;;3.10;1.20;;;10.50;99.90;;;;;;2054672;28;20067;-74
2023/11/07 02:48:41;;;;;;;2.40;1.08;;;10.50;99.90;;;;;;2054677;28;20552;-75
2023/11/07 02:49:41;;;;;;;4.45;1.17;;;10.60;99.90;;;;;;2056517;28;20033;-75
2023/11/07 02:50:42;;;;;;;2.67;1.10;;;10.60;99.90;;;;;;2064103;28;20058;-75
2023/11/07 02:51:43;;;;;;;2.75;1.27;;;10.60;99.90;;;;;;2055113;28;20061;-74
2023/11/07 02:52:43;;;;;;;2.30;1.17;;;10.60;99.90;;;;;;2049961;28;20049;-74
2023/11/07 02:53:45;;;;;;;3.17;1.10;;;10.60;99.90;;;;;;2047619;28;20090;-75
2023/11/07 02:54:45;;;;;;;4.03;1.15;;;10.60;99.90;;;;;;2056774;28;20034;-74
2023/11/07 02:55:46;;;;;;;4.20;1.20;;;10.60;99.90;;;;;;2064971;28;20461;-74
2023/11/07 02:56:47;;;;;;;1.70;1.00;;;10.60;99.90;;;;;;2065333;28;20099;-75
2023/11/07 02:57:47;;;;;;;2.25;1.13;;;10.60;99.90;;;;;;2056706;28;20246;-75
2023/11/07 02:58:48;;;;;;;1.55;1.10;;;10.60;99.90;;;;;;2057943;28;20061;-75
2023/11/07 02:59:49;;;;;;;3.25;1.20;;;10.60;99.90;;;;;;2057583;28;20423;-75
2023/11/07 03:00:50;;;;;;;4.15;1.10;;;10.60;99.90;;;;;;2051047;28;20517;-76
2023/11/07 03:01:51;;;;;;;2.65;1.08;;;10.60;99.90;;;;;;2054703;28;20034;-74
2023/11/07 03:02:52;;;;;;;2.83;1.20;;;10.70;99.90;;;;;;2056818;28;20660;-74
2023/11/07 03:03:54;;;;;;;5.78;1.40;;;10.60;99.90;;;;;;2061699;28;20030;-74
2023/11/07 03:04:55;;;;;;;2.25;1.20;;;10.60;99.90;;;;;;2064891;28;20383;-74
2023/11/07 03:05:56;;;;;;;2.75;1.15;;;10.70;99.90;;;;;;2055344;28;20030;-74
2023/11/07 03:06:57;;;;;;;3.97;1.10;;;10.70;99.90;;;;;;2048565;28;20481;-76
2023/11/07 03:07:58;;;;;;;2.90;1.38;;;10.70;99.90;;;;;;2045672;28;20035;-74
2023/11/07 03:08:59;;;;;;;3.67;1.27;;;10.60;99.90;;;;;;2045032;28;20031;-76
2023/11/07 03:10:01;;;;;;;2.55;1.02;;;10.60;99.90;;;;;;2054777;28;20050;-76
2023/11/07 03:11:01;;;;;;;4.00;1.20;;;10.60;99.90;;;;;;2058261;28;20038;-75
2023/11/07 03:12:03;;;;;;;2.90;1.30;;;10.60;99.90;;;;;;2063747;28;20432;-74
2023/11/07 03:13:04;;;;;;;3.28;1.20;;;10.60;99.90;;;;;;2064481;28;20026;-74
2023/11/07 03:14:05;;;;;;;2.63;1.20;;;10.70;99.90;;;;;;2065576;28;20431;-76
2023/11/07 03:15:06;;;;;;;5.05;1.30;;;10.70;99.90;;;;;;2066173;28;20041;-75
2023/11/07 03:16:07;;;;;;;3.35;1.30;;;10.60;99.90;;;;;;2063310;28;20088;-75
2023/11/07 03:17:08;;;;;;;3.80;1.30;;;10.70;99.90;;;;;;2065635;28;20452;-75
2023/11/07 03:18:09;;;;;;;3.20;1.20;;;10.60;99.90;;;;;;2060539;28;20034;-74
2023/11/07 03:19:09;;;;;;;3.55;1.15;;;10.70;99.90;;;;;;2048327;28;20026;-73
2023/11/07 03:20:10;;;;;;;4.00;1.40;;;10.70;99.90;;;;;;2061499;28;20033;-74
2023/11/07 03:21:11;;;;;;;4.20;1.17;;;10.70;99.90;;;;;;2063244;28;20518;-74
2023/11/07 03:22:12;;;;;;;3.95;1.20;;;10.70;99.90;;;;;;2050653;28;20747;-78
2023/11/07 03:23:12;;;;;;;2.33;1.30;;;10.70;99.90;;;;;;2049728;28;20031;-73
2023/11/07 03:24:15;;;;;;;4.15;1.20;;;10.70;99.90;;;;;;2060846;28;20030;-76
2023/11/07 03:25:16;;;;;;;3.67;1.13;;;10.70;99.90;;;;;;2059357;28;20130;-81
2023/11/07 03:26:17;;;;;;;3.33;1.40;;;10.80;99.90;;;;;;2057927;28;20038;-80
2023/11/07 03:27:17;;;;;;;3.17;1.40;;;10.80;99.90;;;;;;2057953;28;20126;-79
2023/11/07 03:28:20;;;;;;;2.40;1.20;;;10.80;99.90;;;;;;2047175;28;20498;-76
2023/11/07 03:29:20;;;;;;;4.35;1.30;;;10.80;99.90;;;;;;2052667;28;20528;-79
2023/11/07 03:30:21;;;;;;;3.38;1.20;;;10.80;99.90;;;;;;2057955;28;20022;-80
2023/11/07 03:31:22;;;;;;;5.68;1.50;;;10.80;99.90;;;;;;2055580;28;20618;-79
2023/11/07 03:32:22;;;;;;;3.50;1.30;;;10.90;99.90;;;;;;2055481;28;20215;-79
2023/11/07 03:33:23;;;;;;;3.00;1.30;;;10.80;99.90;;;;;;2053360;28;20065;-79
2023/11/07 03:34:24;;;;;;;2.17;1.30;;;10.80;99.90;;;;;;2052816;28;20026;-80
2023/11/07 03:35:27;;;;;;;2.22;1.05;;;10.80;99.90;;;;;;2058142;28;20549;-78
2023/11/07 03:36:27;;;;;;;3.42;1.40;;;10.90;99.90;;;;;;2061820;28;20042;-78
2023/11/07 03:37:28;;;;;;;3.13;1.20;;;10.90;99.90;;;;;;2049215;28;20083;-77
2023/11/07 03:38:28;;;;;;;4.22;1.30;;;10.80;99.90;;;;;;2059320;28;20097;-77
2023/11/07 03:39:30;;;;;;;2.50;1.20;;;10.80;99.90;;;;;;2060349;28;20569;-78
2023/11/07 03:40:31;;;;;;;4.78;1.30;;;10.80;99.90;;;;;;2062547;28;20073;-78
2023/11/07 03:41:32;;;;;;;2.72;1.40;;;10.80;99.90;;;;;;2043622;28;20027;-79
2023/11/07 03:42:34;;;;;;;4.40;1.48;;;10.80;99.90;;;;;;2052662;28;20568;-79
2023/11/07 03:43:35;;;;;;;2.80;1.27;;;10.90;99.90;;;;;;2063877;28;20037;-79
2023/11/07 03:44:36;;;;;;;3.42;1.40;;;10.90;99.90;;;;;;2061375;28;20026;-79
2023/11/07 03:45:37;;;;;;;5.05;1.40;;;10.90;99.90;;;;;;2064968;28;20026;-79
2023/11/07 03:46:37;;;;;;;3.45;1.40;;;10.90;99.90;;;;;;2057054;28;20365;-79
2023/11/07 03:47:39;;;;;;;4.38;1.30;;;10.90;99.90;;;;;;2050286;28;20037;-79
2023/11/07 03:48:40;;;;;;;6.38;1.40;;;10.90;99.90;;;;;;2058689;28;20054;-79
2023/11/07 03:49:41;;;;;;;6.38;1.55;;;10.90;99.90;;;;;;2063505;28;20030;-80
2023/11/07 03:50:43;;;;;;;4.15;1.45;;;10.90;99.90;;;;;;2064129;28;20369;-80
2023/11/07 03:51:44;;;;;;;3.85;1.30;;;10.90;99.90;;;;;;2067274;28;20503;-78
2023/11/07 03:52:44;;;;;;;5.68;1.30;;;10.90;99.90;;;;;;2053386;28;20131;-78
2023/11/07 03:53:45;;;;;;;3.10;1.30;;;10.90;99.90;;;;;;2043797;28;20047;-78
2023/11/07 03:54:46;;;;;;;3.30;1.38;;;10.90;99.90;;;;;;2057775;28;20023;-77
2023/11/07 03:55:47;;;;;;;4.45;1.50;;;10.90;99.90;;;;;;2063296;28;20503;-79
2023/11/07 03:56:48;;;;;;;5.57;1.38;;;10.90;99.90;;;;;;2065184;28;20040;-79
2023/11/07 03:57:48;;;;;;;3.25;1.50;;;10.90;99.90;;;;;;2060955;28;20421;-79
2023/11/07 03:58:49;;;;;;;3.33;1.38;;;10.90;99.90;;;;;;2059651;28;20142;-79
2023/11/07 03:59:50;;;;;;;2.75;1.40;;;10.90;99.90;;;;;;2064497;28;20073;-76
2023/11/07 04:00:51;;;;;;;1.70;1.10;;;10.90;99.90;;;;;;2063045;28;20506;-80
2023/11/07 04:01:52;;;;;;;4.32;1.50;;;10.90;99.90;;;;;;2058180;28;20037;-78
2023/11/07 04:02:52;;;;;;;3.95;1.40;;;10.90;99.90;;;;;;2049952;28;20038;-79
2023/11/07 04:03:53;;;;;;;3.58;1.40;;;10.90;99.90;;;;;;2058477;28;20026;-79
2023/11/07 04:04:53;;;;;;;4.57;1.40;;;10.90;99.90;;;;;;2064760;28;20552;-78
2023/11/07 04:05:54;;;;;;;4.10;1.40;;;10.90;99.90;;;;;;2062301;28;20583;-79
2023/11/07 04:06:54;;;;;;;3.80;1.30;;;10.90;99.90;;;;;;2057151;28;20563;-78
2023/11/07 04:07:56;;;;;;;3.35;1.30;;;10.90;99.90;;;;;;2047438;28;20556;-78
2023/11/07 04:08:58;;;;;;;3.08;1.45;;;10.90;99.90;;;;;;2058477;28;20030;-79
2023/11/07 04:09:59;;;;;;;3.58;1.45;;;10.90;99.90;;;;;;2064858;28;20017;-78
2023/11/07 04:10:59;;;;;;;5.00;1.30;;;10.90;99.90;;;;;;2055072;28;20037;-80
2023/11/07 04:12:00;;;;;;;4.38;1.33;;;10.90;99.90;;;;;;2058131;28;20034;-79
2023/11/07 04:13:05;;;;;;;3.45;1.50;;;10.90;99.90;;;;;;2050849;28;20027;-79
2023/11/07 04:14:05;;;;;;;2.97;1.40;;;10.90;99.90;;;;;;2053019;28;20097;-80
2023/11/07 04:15:09;;;;;;;4.53;1.33;;;10.90;99.90;;;;;;2045615;28;20026;-80
2023/11/07 04:16:09;;;;;;;4.95;1.42;;;10.90;99.90;;;;;;2049513;28;20011;-80
2023/11/07 04:17:10;;;;;;;1.80;1.30;;;10.90;99.90;;;;;;2064016;28;21294;-79
2023/11/07 04:18:10;;;;;;;4.57;1.30;;;10.90;99.90;;;;;;2055645;28;20707;-80
2023/11/07 04:19:11;;;;;;;4.55;1.80;;;10.90;99.90;;;;;;2055505;28;20026;-80
2023/11/07 04:20:12;;;;;;;3.97;1.20;;;10.90;99.90;;;;;;2064137;28;20084;-79
2023/11/07 04:21:12;;;;;;;4.28;1.25;;;10.90;99.90;;;;;;2065389;28;20041;-80
2023/11/07 04:22:13;;;;;;;3.00;1.30;;;10.90;99.90;;;;;;2058001;28;20062;-78
2023/11/07 04:23:15;;;;;;;4.50;1.30;;;10.90;99.90;;;;;;2058029;28;20034;-79
2023/11/07 04:24:15;;;;;;;2.83;1.50;;;10.90;99.90;;;;;;2066123;28;20124;-80
2023/11/07 04:25:19;;;;;;;4.03;1.40;;;10.90;99.90;;;;;;2062260;28;20046;-79
2023/11/07 04:26:19;;;;;;;3.47;1.40;;;11.00;99.90;;;;;;2064887;28;20034;-79
2023/11/07 04:27:20;;;;;;;5.38;1.60;;;10.90;99.90;;;;;;2063646;28;20061;-80
2023/11/07 04:28:21;;;;;;;3.90;1.40;;;10.90;99.90;;;;;;2057845;28;20050;-80
2023/11/07 04:29:21;;;;;;;5.18;1.23;;;10.90;99.90;;;;;;2051650;28;20030;-79
2023/11/07 04:30:23;;;;;;;2.42;1.27;;;10.90;99.90;;;;;;2060995;28;20208;-79
2023/11/07 04:31:24;;;;;;;4.65;1.40;;;10.90;99.90;;;;;;2058858;28;20038;-80
2023/11/07 04:32:25;;;;;;;4.40;1.60;;;11.00;99.90;;;;;;2062197;28;20496;-79
2023/11/07 04:33:26;;;;;;;5.32;1.35;;;10.90;99.90;;;;;;2064868;28;20081;-79
2023/11/07 04:34:27;;;;;;;4.68;1.40;;;10.90;99.90;;;;;;2065882;28;20034;-79
2023/11/07 04:35:27;;;;;;;2.95;1.40;;;10.90;99.90;;;;;;2045903;28;20110;-78
2023/11/07 04:36:28;;;;;;;5.28;1.50;;;10.90;99.90;;;;;;2043071;28;20072;-78
2023/11/07 04:37:28;;;;;;;2.67;1.40;;;10.90;99.90;;;;;;2056162;28;20592;-78
2023/11/07 04:38:32;;;;;;;3.90;1.45;;;10.90;99.90;;;;;;2066970;28;20056;-78
2023/11/07 04:39:32;;;;;;;3.45;1.30;;;10.90;99.90;;;;;;2062572;28;20045;-78
2023/11/07 04:40:33;;;;;;;5.15;1.40;;;10.90;99.90;;;;;;2057956;28;20038;-77
2023/11/07 04:41:33;;;;;;;3.58;1.38;;;10.90;99.90;;;;;;2058267;28;20046;-78
2023/11/07 04:42:35;;;;;;;4.13;1.60;;;10.90;99.90;;;;;;2058212;28;20282;-78
2023/11/07 04:43:36;;;;;;;3.28;1.30;;;10.90;99.90;;;;;;2050244;28;20062;-78
2023/11/07 04:44:36;;;;;;;2.97;1.42;;;11.00;99.90;;;;;;2058060;28;20532;-79
2023/11/07 04:45:37;;;;;;;5.97;1.60;;;11.00;99.90;;;;;;2062278;28;20135;-76
2023/11/07 04:46:39;;;;;;;2.45;1.48;;;11.00;99.90;;;;;;2061676;28;20030;-78
2023/11/07 04:47:39;;;;;;;3.25;1.40;;;11.00;99.90;;;;;;2064093;28;20181;-78
2023/11/07 04:48:40;;;;;;;7.32;1.52;;;11.00;99.90;;;;;;2050450;28;20160;-77
2023/11/07 04:49:42;;;;;;;3.53;1.30;;;10.90;99.90;;;;;;2055532;28;20057;-79
2023/11/07 04:50:44;;;;;;;4.72;1.48;;;10.90;99.90;;;;;;2062047;28;20034;-78
2023/11/07 04:51:45;;;;;;;3.92;1.35;;;10.90;99.90;;;;;;2058643;28;20023;-79
2023/11/07 04:52:47;;;;;;;5.25;1.30;;;10.90;99.90;;;;;;2061072;28;20381;-78
2023/11/07 04:53:48;;;;;;;3.83;1.40;;;10.90;99.90;;;;;;2057069;28;20093;-78
2023/11/07 04:54:48;;;;;;;4.43;1.40;;;10.90;99.90;;;;;;2052512;28;20037;-80
2023/11/07 04:55:49;;;;;;;7.28;2.50;;;10.90;99.90;;;;;;2056700;28;20508;-79
2023/11/07 04:56:54;;;;;;;6.57;1.92;;;10.90;99.90;;;;;;2066956;28;20015;-78
2023/11/07 04:57:55;;;;;;;3.78;1.55;;;10.90;99.90;;;;;;2069017;28;20056;-79
2023/11/07 04:58:55;;;;;;;8.48;1.50;;;10.90;99.90;;;;;;2066340;28;20025;-79
2023/11/07 04:59:57;;;;;;;2.38;1.40;;;10.90;99.90;;;;;;2069194;28;20036;-79
2023/11/07 05:00:58;;;;;;;3.88;1.30;;;10.80;99.90;;;;;;2066500;28;20029;-78
2023/11/07 05:01:59;;;;;;;9.73;1.60;;;10.80;99.90;;;;;;2061374;28;20026;-78
2023/11/07 05:02:59;;;;;;;5.78;1.50;;;10.80;99.90;;;;;;2064330;28;20021;-78
2023/11/07 05:04:00;;;;;;;34.83;2.85;;;10.80;99.90;;;;;;2068072;28;20018;-78
2023/11/07 05:05:00;;;;;;;6.32;1.63;;;10.80;99.90;;;;;;2061735;28;20173;-79
2023/11/07 05:06:01;;;;;;;3.67;2.13;;;10.80;99.90;;;;;;2064494;28;20402;-79
2023/11/07 05:07:02;;;;;;;4.38;1.40;;;10.90;99.90;;;;;;2065178;28;20128;-80
2023/11/07 05:08:02;;;;;;;7.05;1.65;;;10.90;99.90;;;;;;2064180;28;20034;-80
2023/11/07 05:09:07;;;;;;;5.85;1.50;;;10.90;99.90;;;;;;2063583;28;20922;-79
2023/11/07 05:10:12;;;;;;;6.55;1.60;;;10.90;99.90;;;;;;2062167;28;20029;-79
2023/11/07 05:11:12;;;;;;;3.05;1.40;;;10.90;99.90;;;;;;2060021;28;20026;-79
2023/11/07 05:12:13;;;;;;;5.07;1.30;;;10.80;99.90;;;;;;2060616;28;20417;-80
2023/11/07 05:13:14;;;;;;;5.03;1.70;;;10.80;99.90;;;;;;2066492;28;20030;-80
2023/11/07 05:14:15;;;;;;;5.97;1.58;;;10.80;99.90;;;;;;2068253;28;20029;-80
2023/11/07 05:15:15;;;;;;;2.47;1.45;;;10.80;99.90;;;;;;2060278;28;20489;-80
2023/11/07 05:16:16;;;;;;;4.45;1.48;;;10.80;99.90;;;;;;2060770;28;20030;-80
2023/11/07 05:17:17;;;;;;;4.93;1.55;;;10.80;99.90;;;;;;2064628;28;20800;-79
2023/11/07 05:18:18;;;;;;;6.60;1.60;;;10.80;99.90;;;;;;2059535;28;20267;-79
2023/11/07 05:19:19;;;;;;;4.90;1.48;;;10.80;99.90;;;;;;2060597;28;20133;-79